Time;durP1;ratioP1;P1;durP2;ratioP2;P2;SDS_P1;SDS_P2;PMS_P1;PMS_P2;Temp;Humidity;BMP_temperature;BMP_pressure;BME280_temperature;BME280_humidity;BME280_pressure;Samples;Min_cycle;Max_cycle;Signal;HPM_P1;HPM_P2
2023/05/26 00:02:14;;;;;;;18.87;6.97;;;;;;;-145.69;100.00;52343.38;5060108;28;20559;-79
2023/05/26 00:04:44;;;;;;;18.47;7.67;;;;;;;-145.69;100.00;52383.00;5052912;28;20206;-80
2023/05/26 00:07:11;;;;;;;15.03;7.57;;;;;;;-145.69;100.00;52345.38;5052637;28;20199;-81
2023/05/26 00:09:37;;;;;;;15.13;7.53;;;;;;;-145.69;100.00;52404.78;5052688;28;20558;-79
2023/05/26 00:12:05;;;;;;;14.13;7.07;;;;;;;-145.69;100.00;52339.44;5058690;28;20199;-80
2023/05/26 00:14:32;;;;;;;16.80;7.43;;;;;;;-145.69;100.00;52343.38;5072698;28;20226;-81
2023/05/26 00:17:02;;;;;;;18.43;7.87;;;;;;;-145.69;100.00;52369.13;5072499;28;20566;-81
2023/05/26 00:19:29;;;;;;;14.83;7.77;;;;;;;-145.69;100.00;52361.22;5053340;28;20199;-80
2023/05/26 00:21:55;;;;;;;22.87;7.97;;;;;;;-145.69;100.00;52345.38;5052750;28;20199;-81
2023/05/26 00:24:21;;;;;;;16.37;7.30;;;;;;;-145.69;100.00;52377.06;5052825;28;20195;-81
2023/05/26 00:26:48;;;;;;;16.20;8.00;;;;;;;-145.69;100.00;52345.38;5054699;28;20203;-82
2023/05/26 00:29:14;;;;;;;16.47;8.07;;;;;;;-145.69;100.00;52390.91;5056811;28;20563;-80
2023/05/26 00:31:41;;;;;;;22.10;7.90;;;;;;;-145.69;100.00;52377.06;5056679;28;20203;-80
2023/05/26 00:34:08;;;;;;;14.50;8.17;;;;;;;-145.69;100.00;52377.06;5056730;28;20617;-80
2023/05/26 00:36:35;;;;;;;15.00;7.30;;;;;;;-145.69;100.00;52329.53;5066488;28;20233;-81
2023/05/26 00:39:01;;;;;;;13.83;7.93;;;;;;;-145.69;100.00;52359.22;5076732;28;20206;-81
2023/05/26 00:41:28;;;;;;;18.33;8.60;;;;;;;-145.69;100.00;52353.28;5076398;28;20198;-81
2023/05/26 00:43:54;;;;;;;18.60;7.83;;;;;;;-145.69;100.00;52369.13;5076446;28;20199;-81
2023/05/26 00:46:20;;;;;;;14.40;7.40;;;;;;;-145.69;100.00;52371.13;5076634;28;20198;-81
2023/05/26 00:48:47;;;;;;;15.47;7.60;;;;;;;-145.69;100.00;52377.06;5066123;28;20227;-80
2023/05/26 00:51:15;;;;;;;14.37;6.73;;;;;;;-145.69;100.00;52361.22;5075894;28;20203;-80
2023/05/26 00:53:43;;;;;;;13.93;7.13;;;;;;;-145.69;100.00;52349.31;5076423;28;20203;-81
2023/05/26 00:56:11;;;;;;;11.40;6.57;;;;;;;-145.69;100.00;52349.31;5075933;28;20238;-80
2023/05/26 00:58:38;;;;;;;12.03;7.03;;;;;;;-145.69;100.00;52347.34;5076164;28;20621;-80
2023/05/26 01:01:05;;;;;;;18.40;8.17;;;;;;;-145.69;100.00;52341.41;5070792;28;20222;-80
2023/05/26 01:03:32;;;;;;;16.80;7.27;;;;;;;-145.69;100.00;52329.53;5076097;28;20201;-80
2023/05/26 01:05:59;;;;;;;14.30;6.60;;;;;;;-145.69;100.00;52379.03;5076104;28;20194;-79
2023/05/26 01:08:26;;;;;;;13.77;7.67;;;;;;;-145.69;100.00;52361.22;5068128;28;20191;-79
2023/05/26 01:10:56;;;;;;;24.03;7.67;;;;;;;-145.69;100.00;52345.38;5055784;28;20200;-79
2023/05/26 01:13:28;;;;;;;17.87;7.20;;;;;;;-145.69;100.00;52355.28;5056750;28;20196;-79
2023/05/26 01:15:59;;;;;;;10.03;6.67;;;;;;;-145.69;100.00;52337.44;5053377;28;20223;-79
2023/05/26 01:18:30;;;;;;;16.80;6.93;;;;;;;-145.69;100.00;52341.41;5055863;28;20204;-79
2023/05/26 01:21:01;;;;;;;13.67;7.00;;;;;;;-145.69;100.00;52353.28;5070355;28;20195;-79
2023/05/26 01:23:47;;;;;;;16.77;7.50;;;;;;;-145.69;100.00;52371.13;5075738;28;20248;-79
2023/05/26 01:26:21;;;;;;;12.27;6.57;;;;;;;-145.69;100.00;52333.47;5035730;28;20290;-79
2023/05/26 01:28:52;;;;;;;12.83;6.67;;;;;;;-145.69;100.00;52353.28;5035776;28;20287;-80
2023/05/26 01:31:19;;;;;;;11.93;6.00;;;;;;;-145.69;100.00;52329.53;5042903;28;20200;-79
2023/05/26 01:33:45;;;;;;;11.50;6.17;;;;;;;-145.69;100.00;52351.31;5055828;28;20199;-80
2023/05/26 01:36:12;;;;;;;16.47;6.70;;;;;;;-145.69;100.00;52363.19;5060187;28;20222;-80
2023/05/26 01:38:39;;;;;;;14.20;6.67;;;;;;;-145.69;100.00;52353.28;5073874;28;20199;-79
2023/05/26 01:41:13;;;;;;;13.73;6.30;;;;;;;-145.69;100.00;52353.28;5075466;28;20248;-79
2023/05/26 01:43:44;;;;;;;9.43;6.03;;;;;;;-145.69;100.00;52384.97;5075247;28;20719;-80
2023/05/26 01:46:22;;;;;;;11.10;6.33;;;;;;;-145.69;100.00;52341.41;5075437;28;20206;-80
2023/05/26 01:48:50;;;;;;;17.43;6.63;;;;;;;-145.69;100.00;52349.31;5060815;28;20236;-80
2023/05/26 01:51:19;;;;;;;13.00;6.50;;;;;;;-145.69;100.00;52361.22;5036123;28;20196;-80
2023/05/26 01:53:49;;;;;;;11.73;6.60;;;;;;;-145.69;100.00;52349.31;5042016;28;20655;-80
2023/05/26 01:56:18;;;;;;;16.87;7.50;;;;;;;-145.69;100.00;52357.25;5054816;28;20322;-81
2023/05/26 01:58:46;;;;;;;12.27;6.57;;;;;;;-145.69;100.00;52367.16;5055152;28;20203;-80
2023/05/26 02:01:14;;;;;;;12.53;6.20;;;;;;;-145.69;100.00;52351.31;5069888;28;20562;-79
2023/05/26 02:03:42;;;;;;;18.10;7.00;;;;;;;-145.69;100.00;52369.13;5075167;28;20203;-80
2023/05/26 02:06:08;;;;;;;14.97;7.30;;;;;;;-145.69;100.00;52386.97;5075051;28;20225;-79
2023/05/26 02:08:35;;;;;;;13.33;7.07;;;;;;;-145.69;100.00;52384.97;5075072;28;20206;-80
2023/05/26 02:11:02;;;;;;;15.77;7.40;;;;;;;-145.69;100.00;52371.13;5066631;28;20666;-79
2023/05/26 02:13:28;;;;;;;11.43;6.50;;;;;;;-145.69;100.00;52369.13;5055140;28;20195;-79
2023/05/26 02:15:55;;;;;;;12.67;6.57;;;;;;;-145.69;100.00;52398.84;5054703;28;20261;-79
2023/05/26 02:18:24;;;;;;;16.83;6.90;;;;;;;-145.69;100.00;52369.13;5054738;28;20207;-79
2023/05/26 02:20:51;;;;;;;14.13;7.20;;;;;;;-145.69;100.00;52404.78;5053750;28;20234;-80
2023/05/26 02:23:17;;;;;;;17.00;7.33;;;;;;;-145.69;100.00;52384.97;5054598;28;20228;-80
2023/05/26 02:25:44;;;;;;;15.37;7.70;;;;;;;-145.69;100.00;52384.97;5070599;28;20256;-81
2023/05/26 02:28:11;;;;;;;17.70;7.37;;;;;;;-145.69;100.00;52365.16;5074379;28;20207;-81
2023/05/26 02:30:37;;;;;;;15.67;7.37;;;;;;;-145.69;100.00;52386.97;5074332;28;20673;-80
2023/05/26 02:33:05;;;;;;;18.57;7.60;;;;;;;-145.69;100.00;52373.09;5056906;28;20600;-81
2023/05/26 02:35:33;;;;;;;14.97;7.37;;;;;;;-145.69;100.00;52373.09;5054404;28;20215;-81
2023/05/26 02:38:00;;;;;;;18.10;8.17;;;;;;;-145.69;100.00;52400.81;5071464;28;20198;-80
2023/05/26 02:40:27;;;;;;;15.30;7.50;;;;;;;-145.69;100.00;52398.84;5074252;28;20205;-81
2023/05/26 02:42:53;;;;;;;16.58;8.90;;;;;;;-145.69;100.00;52373.09;5073328;28;20469;-80
2023/05/26 02:45:20;;;;;;;18.30;9.30;;;;;;;-145.69;100.00;52392.91;5074169;28;20195;-81
2023/05/26 02:47:47;;;;;;;17.77;8.20;;;;;;;-145.69;100.00;52373.09;5074132;28;20233;-81
2023/05/26 02:50:13;;;;;;;18.90;7.17;;;;;;;-145.69;100.00;52386.97;5056389;28;20297;-80
2023/05/26 02:52:42;;;;;;;13.17;7.57;;;;;;;-145.69;100.00;52377.06;5053942;28;20222;-81
2023/05/26 02:55:10;;;;;;;16.77;8.37;;;;;;;-145.69;100.00;52377.06;5053727;28;20238;-79
2023/05/26 02:57:36;;;;;;;17.07;8.07;;;;;;;-145.69;100.00;52384.97;5054223;28;20249;-79
2023/05/26 03:00:03;;;;;;;15.03;8.10;;;;;;;-145.69;100.00;52383.00;5053692;28;20207;-79
2023/05/26 03:02:30;;;;;;;19.63;8.83;;;;;;;-145.69;100.00;52388.94;5070517;28;20691;-80
2023/05/26 03:04:57;;;;;;;24.17;10.23;;;;;;;-145.69;100.00;52418.63;5073371;28;20672;-80
2023/05/26 03:07:24;;;;;;;18.67;8.67;;;;;;;-145.69;100.00;52375.06;5073513;28;20199;-80
2023/05/26 03:09:52;;;;;;;15.30;7.60;;;;;;;-145.69;100.00;52392.91;5073732;28;20244;-79
2023/05/26 03:12:18;;;;;;;17.43;8.40;;;;;;;-145.69;100.00;52396.84;5072770;28;20199;-80
2023/05/26 03:14:52;;;;;;;14.80;8.10;;;;;;;-145.69;100.00;52392.91;5073330;28;20244;-79
2023/05/26 03:17:27;;;;;;;14.37;7.53;;;;;;;-145.69;100.00;52363.19;5073442;28;20243;-79
2023/05/26 03:19:57;;;;;;;18.23;8.40;;;;;;;-145.69;100.00;52367.16;5073544;28;20205;-79
2023/05/26 03:22:23;;;;;;;16.27;8.13;;;;;;;-145.69;100.00;52349.31;5073363;28;20260;-79
2023/05/26 03:24:50;;;;;;;15.97;7.77;;;;;;;-145.69;100.00;52400.81;5069826;28;20585;-78
2023/05/26 03:27:23;;;;;;;19.93;9.20;;;;;;;-145.69;100.00;52373.09;5053395;28;20209;-79
2023/05/26 03:29:52;;;;;;;22.13;10.10;;;;;;;-145.69;100.00;52400.81;5053417;28;20260;-80
2023/05/26 03:32:21;;;;;;;27.47;11.37;;;;;;;-145.69;100.00;52406.75;5062831;28;20199;-79
2023/05/26 03:34:48;;;;;;;15.87;9.30;;;;;;;-145.69;100.00;52371.13;5073122;28;20300;-79
2023/05/26 03:37:17;;;;;;;19.13;8.60;;;;;;;-145.69;100.00;52396.84;5065317;28;20204;-80
2023/05/26 03:39:44;;;;;;;16.73;8.63;;;;;;;-145.69;100.00;52412.69;5053170;28;20265;-80
2023/05/26 03:42:11;;;;;;;25.07;8.37;;;;;;;-145.69;100.00;52396.84;5042573;28;20258;-81
2023/05/26 03:44:39;;;;;;;14.23;8.07;;;;;;;-145.69;100.00;52408.75;5033229;28;20222;-80
2023/05/26 03:47:06;;;;;;;19.13;8.27;;;;;;;-145.69;100.00;52390.91;5033392;28;20235;-80
2023/05/26 03:49:32;;;;;;;18.03;8.17;;;;;;;-145.69;100.00;52408.75;5053199;28;20812;-81
2023/05/26 03:52:03;;;;;;;18.60;8.90;;;;;;;-145.69;100.00;52384.97;5073258;28;20206;-79
2023/05/26 03:54:33;;;;;;;20.53;9.50;;;;;;;-145.69;100.00;52404.78;5073111;28;20218;-80
2023/05/26 03:57:02;;;;;;;18.07;9.03;;;;;;;-145.69;100.00;52369.13;5072810;28;20835;-80
2023/05/26 03:59:31;;;;;;;22.90;9.07;;;;;;;-145.69;100.00;52394.88;5072842;28;20539;-81
2023/05/26 04:01:59;;;;;;;13.60;8.70;;;;;;;-145.69;100.00;52373.09;5070887;28;20285;-81
2023/05/26 04:04:28;;;;;;;20.10;9.60;;;;;;;-145.69;100.00;52383.00;5072385;28;20268;-80
2023/05/26 04:06:57;;;;;;;18.60;9.07;;;;;;;-145.69;100.00;52375.06;5072258;28;20198;-81
2023/05/26 04:09:24;;;;;;;21.43;9.07;;;;;;;-145.69;100.00;52369.13;5072902;28;20206;-81
2023/05/26 04:11:52;;;;;;;23.43;9.40;;;;;;;-145.69;100.00;52371.13;5065174;28;20201;-81
2023/05/26 04:14:19;;;;;;;17.90;8.53;;;;;;;-145.69;100.00;52408.75;5052230;28;20196;-81
2023/05/26 04:16:46;;;;;;;15.97;8.53;;;;;;;-145.69;100.00;52404.78;5053027;28;20231;-81
2023/05/26 04:19:13;;;;;;;19.10;8.53;;;;;;;-145.69;100.00;52351.31;5052387;28;20655;-81
2023/05/26 04:21:40;;;;;;;21.20;9.87;;;;;;;-145.69;100.00;52369.13;5052606;28;20199;-81
2023/05/26 04:24:09;;;;;;;22.20;10.97;;;;;;;-145.69;100.00;52384.97;5053350;28;20559;-82
2023/05/26 04:26:37;;;;;;;26.73;10.67;;;;;;;-145.69;100.00;52379.03;5072680;28;20199;-81
2023/05/26 04:29:04;;;;;;;21.10;9.80;;;;;;;-145.69;100.00;52394.88;5070543;28;20566;-81
2023/05/26 04:31:41;;;;;;;18.13;8.87;;;;;;;-145.69;100.00;52394.88;5072762;28;20235;-81
2023/05/26 04:34:08;;;;;;;16.10;8.33;;;;;;;-145.69;100.00;52359.22;5072481;28;20198;-81
2023/05/26 04:36:38;;;;;;;15.70;7.63;;;;;;;-145.69;100.00;52400.81;5067472;28;20280;-81
2023/05/26 04:39:05;;;;;;;23.33;9.40;;;;;;;-145.69;100.00;52365.16;5052599;28;20253;-81
2023/05/26 04:41:32;;;;;;;19.73;9.17;;;;;;;-145.69;100.00;52388.94;5052410;28;20195;-82
2023/05/26 04:44:07;;;;;;;21.03;9.97;;;;;;;-145.69;100.00;52422.59;5069455;28;20752;-82
2023/05/26 04:46:37;;;;;;;17.37;8.67;;;;;;;-145.69;100.00;52365.16;5072504;28;20667;-80
2023/05/26 04:49:07;;;;;;;22.70;9.50;;;;;;;-145.69;100.00;52396.84;5072119;28;20593;-82
2023/05/26 04:51:34;;;;;;;16.93;9.37;;;;;;;-145.69;100.00;52398.84;5072018;28;20715;-80
2023/05/26 04:54:01;;;;;;;18.07;9.80;;;;;;;-145.69;100.00;52400.81;5055311;28;20203;-81
2023/05/26 04:56:29;;;;;;;19.97;10.03;;;;;;;-145.69;100.00;52361.22;5051439;28;20223;-82
2023/05/26 04:58:57;;;;;;;22.37;9.97;;;;;;;-145.69;100.00;52404.78;5052813;28;20733;-81
2023/05/26 05:01:26;;;;;;;22.87;10.43;;;;;;;-145.69;100.00;52388.94;5057919;28;20598;-80
2023/05/26 05:03:55;;;;;;;20.67;10.10;;;;;;;-145.69;100.00;52394.88;5052170;28;20213;-81
2023/05/26 05:06:22;;;;;;;24.77;10.37;;;;;;;-145.69;100.00;52402.78;5052092;28;20203;-82
2023/05/26 05:08:48;;;;;;;21.93;9.20;;;;;;;-145.69;100.00;52347.34;5053140;28;20203;-82
2023/05/26 05:11:18;;;;;;;19.17;10.23;;;;;;;-145.69;100.00;52345.38;5063651;28;20628;-82
2023/05/26 05:13:47;;;;;;;21.10;10.03;;;;;;;-145.69;100.00;52371.13;5075466;28;20222;-81
2023/05/26 05:16:13;;;;;;;23.50;9.30;;;;;;;-145.69;100.00;52353.28;5075927;28;20570;-82
2023/05/26 05:18:40;;;;;;;19.33;8.90;;;;;;;-145.69;100.00;52375.06;5075748;28;20198;-81
2023/05/26 05:21:07;;;;;;;20.80;9.20;;;;;;;-145.69;100.00;52369.13;5075868;28;20233;-81
2023/05/26 05:23:36;;;;;;;18.00;9.20;;;;;;;-145.69;100.00;52371.13;5062247;28;20235;-81
2023/05/26 05:26:04;;;;;;;20.30;9.57;;;;;;;-145.69;100.00;52379.03;5055833;28;20203;-81
2023/05/26 05:28:32;;;;;;;16.47;9.53;;;;;;;-145.69;100.00;52371.13;5055741;28;20253;-82
2023/05/26 05:31:00;;;;;;;24.17;10.37;;;;;;;-145.69;100.00;52341.41;5073209;28;20202;-82
2023/05/26 05:33:29;;;;;;;20.97;10.23;;;;;;;-145.69;100.00;52373.09;5075504;28;20618;-81
2023/05/26 05:35:56;;;;;;;22.77;10.93;;;;;;;-145.69;100.00;52359.22;5062426;28;20219;-82
2023/05/26 05:38:23;;;;;;;22.87;11.47;;;;;;;-145.69;100.00;52333.47;5065436;28;20246;-79
2023/05/26 05:40:49;;;;;;;21.73;11.27;;;;;;;-145.69;100.00;52341.41;5045094;28;20232;-82
2023/05/26 05:43:18;;;;;;;16.75;9.70;;;;;;;-145.69;100.00;52329.53;5035334;28;20204;-80
2023/05/26 05:45:49;;;;;;;16.50;8.43;;;;;;;-145.69;100.00;52309.72;5035500;28;20204;-79
2023/05/26 05:48:19;;;;;;;14.35;7.88;;;;;;;-145.69;100.00;52309.72;5063865;28;20207;-80
2023/05/26 05:50:47;;;;;;;14.40;7.13;;;;;;;-145.69;100.00;52289.91;5075197;28;20203;-80
2023/05/26 05:53:13;;;;;;;13.65;7.13;;;;;;;-145.69;100.00;52297.84;5075369;28;20198;-80
2023/05/26 05:55:43;;;;;;;13.27;7.28;;;;;;;-145.69;100.00;52315.66;5074931;28;20206;-81
2023/05/26 05:58:12;;;;;;;9.57;6.07;;;;;;;-145.69;100.00;52285.97;5075229;28;20203;-81
2023/05/26 06:00:47;;;;;;;11.07;6.38;;;;;;;-145.69;100.00;52301.81;5069834;28;20294;-81
2023/05/26 06:03:21;;;;;;;12.80;6.72;;;;;;;-145.69;100.00;52285.97;5075225;28;20198;-81
2023/05/26 06:05:50;;;;;;;10.10;6.20;;;;;;;-145.69;100.00;52297.84;5075064;28;20207;-82
2023/05/26 06:08:18;;;;;;;9.60;6.10;;;;;;;-145.69;100.00;52289.91;5074602;28;20199;-82
2023/05/26 06:10:45;;;;;;;12.93;6.25;;;;;;;-145.69;100.00;52293.88;5061007;28;20203;-81
2023/05/26 06:13:18;;;;;;;14.13;6.88;;;;;;;-145.69;100.00;52317.66;5054931;28;20559;-82
2023/05/26 06:15:49;;;;;;;12.77;6.60;;;;;;;-145.69;100.00;52309.72;5054316;28;20202;-82
2023/05/26 06:18:18;;;;;;;11.57;5.90;;;;;;;-145.69;100.00;52307.75;5069632;28;20237;-81
2023/05/26 06:20:47;;;;;;;10.73;5.85;;;;;;;-145.69;100.00;52287.94;5074909;28;20271;-81
2023/05/26 06:23:14;;;;;;;11.98;6.90;;;;;;;-145.69;100.00;52295.84;5073432;28;20396;-80
2023/05/26 06:25:48;;;;;;;10.00;5.97;;;;;;;-145.69;100.00;52283.97;5073811;28;20202;-81
2023/05/26 06:28:14;;;;;;;16.92;6.93;;;;;;;-145.69;100.00;52285.97;5060509;28;20200;-80
2023/05/26 06:30:41;;;;;;;10.85;6.05;;;;;;;-145.69;100.00;52258.22;5055245;28;20195;-81
2023/05/26 06:33:07;;;;;;;12.18;6.07;;;;;;;-145.69;100.00;52309.72;5054557;28;20207;-80
2023/05/26 06:35:35;;;;;;;13.10;7.00;;;;;;;-145.69;100.00;52262.19;5054939;28;20676;-81
2023/05/26 06:38:01;;;;;;;12.85;5.82;;;;;;;-145.69;100.00;52274.06;5054066;28;20230;-80
2023/05/26 06:40:28;;;;;;;9.93;5.90;;;;;;;-145.69;100.00;52282.00;5068545;28;20253;-80
2023/05/26 06:42:54;;;;;;;17.63;6.72;;;;;;;-145.69;100.00;52313.69;5073658;28;20685;-80
2023/05/26 06:45:21;;;;;;;14.00;6.95;;;;;;;-145.69;100.00;52278.03;5074256;28;20199;-80
2023/05/26 06:47:48;;;;;;;13.77;7.18;;;;;;;-145.69;100.00;52274.06;5074343;28;20203;-80
2023/05/26 06:50:14;;;;;;;11.63;6.20;;;;;;;-145.69;100.00;52274.06;5059155;28;20231;-80
2023/05/26 06:52:42;;;;;;;12.40;6.03;;;;;;;-145.69;100.00;52301.81;5054065;28;20249;-80
2023/05/26 06:55:09;;;;;;;15.82;6.75;;;;;;;-145.69;100.00;52283.97;5053919;28;20203;-80
2023/05/26 06:57:36;;;;;;;14.35;6.55;;;;;;;-145.69;100.00;52287.94;5059194;28;20222;-78
2023/05/26 07:00:03;;;;;;;15.35;7.03;;;;;;;-145.69;100.00;52280.00;5066850;28;20199;-78
2023/05/26 07:02:29;;;;;;;15.82;6.13;;;;;;;-145.69;100.00;52268.13;5053857;28;20199;-79
2023/05/26 07:04:56;;;;;;;16.27;6.88;;;;;;;-145.69;100.00;52287.94;5053549;28;20705;-79
2023/05/26 07:07:22;;;;;;;12.07;6.25;;;;;;;-145.69;100.00;52313.69;5068635;28;20195;-80
2023/05/26 07:09:50;;;;;;;14.40;6.78;;;;;;;-145.69;100.00;52256.25;5072024;28;20248;-79
2023/05/26 07:12:16;;;;;;;11.35;5.85;;;;;;;-145.69;100.00;52276.06;5073822;28;20228;-78
2023/05/26 07:14:46;;;;;;;16.63;7.03;;;;;;;-145.69;100.00;52250.31;5073718;28;20253;-79
2023/05/26 07:17:12;;;;;;;14.98;6.88;;;;;;;-145.69;100.00;52283.97;5058579;28;20226;-79
2023/05/26 07:19:39;;;;;;;19.17;6.78;;;;;;;-145.69;100.00;52256.25;5053531;28;20208;-80
2023/05/26 07:22:05;;;;;;;13.00;6.30;;;;;;;-145.69;100.00;52266.16;5053693;28;20273;-80
2023/05/26 07:24:32;;;;;;;16.42;6.50;;;;;;;-145.69;100.00;52248.34;5053589;28;20249;-80
2023/05/26 07:27:00;;;;;;;14.23;5.82;;;;;;;-145.69;100.00;52262.19;5053306;28;20622;-79
2023/05/26 07:29:29;;;;;;;11.60;6.40;;;;;;;-145.69;100.00;52248.34;5069162;28;20214;-79
2023/05/26 07:31:55;;;;;;;14.15;6.53;;;;;;;-145.69;100.00;52289.91;5071553;28;20191;-78
2023/05/26 07:34:22;;;;;;;9.20;5.88;;;;;;;-145.69;100.00;52246.34;5064819;28;20563;-79
2023/05/26 07:36:50;;;;;;;15.90;6.63;;;;;;;-145.69;100.00;52274.06;5053348;28;20322;-79
2023/05/26 07:39:17;;;;;;;15.70;6.50;;;;;;;-145.69;100.00;52258.22;5053442;28;20282;-79
2023/05/26 07:41:43;;;;;;;14.63;6.63;;;;;;;-145.69;100.00;52238.44;5072161;28;20199;-79
2023/05/26 07:44:11;;;;;;;11.77;6.53;;;;;;;-145.69;100.00;52242.38;5073086;28;20198;-80
2023/05/26 07:46:38;;;;;;;13.55;6.05;;;;;;;-145.69;100.00;52220.59;5072925;28;20195;-80
2023/05/26 07:49:04;;;;;;;11.77;6.18;;;;;;;-145.69;100.00;52244.38;5058155;28;20235;-79
2023/05/26 07:51:31;;;;;;;10.63;6.10;;;;;;;-145.69;100.00;52204.75;5033161;28;20203;-80
2023/05/26 07:53:58;;;;;;;14.43;6.22;;;;;;;-145.69;99.39;52214.66;5033176;28;20211;-79
2023/05/26 07:56:25;;;;;;;15.07;5.72;;;;;;;-145.69;100.00;52246.34;5033137;28;20211;-79
2023/05/26 07:58:52;;;;;;;13.55;5.70;;;;;;;-145.69;97.69;52240.41;5059424;28;20561;-80
2023/05/26 08:01:20;;;;;;;12.63;5.80;;;;;;;-145.69;95.86;52250.31;5056898;28;20203;-81
2023/05/26 08:03:47;;;;;;;9.35;5.90;;;;;;;-145.69;94.81;52226.53;5055812;28;20223;-80
2023/05/26 08:06:14;;;;;;;11.57;5.95;;;;;;;-145.69;95.43;52210.72;5067621;28;20195;-80
2023/05/26 08:08:40;;;;;;;14.27;6.65;;;;;;;-145.69;93.41;52212.69;5071345;28;20265;-82
2023/05/26 08:11:07;;;;;;;10.45;6.30;;;;;;;-145.69;93.70;52218.63;5062435;28;20199;-82
2023/05/26 08:13:33;;;;;;;14.57;6.45;;;;;;;-145.69;96.65;52234.47;5053894;28;20199;-84
2023/05/26 08:16:00;;;;;;;13.52;6.55;;;;;;;-145.69;100.00;52242.38;5053934;28;20205;-82
2023/05/26 08:18:28;;;;;;;15.25;6.70;;;;;;;-145.69;94.45;52234.47;5053321;28;20231;-85
2023/05/26 08:20:55;;;;;;;12.63;7.20;;;;;;;-145.69;93.00;52246.34;5052905;28;20226;-80
2023/05/26 08:23:22;;;;;;;18.50;7.97;;;;;;;-145.69;97.90;52258.22;5053259;28;20206;-80
2023/05/26 08:25:48;;;;;;;17.05;7.55;;;;;;;-145.69;95.75;52234.47;5051922;28;20218;-81
2023/05/26 08:28:15;;;;;;;19.00;8.05;;;;;;;-145.69;96.04;52246.34;5069167;28;20311;-83
2023/05/26 08:30:41;;;;;;;15.10;7.35;;;;;;;-145.69;96.26;52256.25;5072577;28;20680;-81
2023/05/26 08:33:08;;;;;;;13.18;7.55;;;;;;;-145.69;99.70;52222.59;5072735;28;20298;-79
2023/05/26 08:35:36;;;;;;;14.20;6.82;;;;;;;-145.69;97.31;52226.53;5072665;28;20722;-80
2023/05/26 08:38:02;;;;;;;15.98;7.85;;;;;;;-145.69;98.29;52214.66;5072533;28;20230;-79
2023/05/26 08:40:29;;;;;;;21.20;8.50;;;;;;;-145.69;91.32;52208.72;5071003;28;20203;-83
2023/05/26 08:42:58;;;;;;;15.52;7.18;;;;;;;-145.69;92.42;52218.63;5052537;28;20565;-79
2023/05/26 08:45:25;;;;;;;19.30;8.02;;;;;;;-145.69;90.22;52212.69;5052729;28;20245;-85
2023/05/26 08:47:54;;;;;;;17.83;7.25;;;;;;;-145.69;92.22;52216.66;5052245;28;20290;-84
2023/05/26 08:50:20;;;;;;;19.25;7.85;;;;;;;-145.69;96.99;52190.91;5058398;28;20226;-79
2023/05/26 08:52:50;;;;;;;13.88;7.03;;;;;;;-145.69;92.79;52230.50;5064896;28;20282;-78
2023/05/26 08:55:16;;;;;;;14.07;7.30;;;;;;;-145.69;85.69;52232.50;5057115;28;20237;-81
2023/05/26 08:57:43;;;;;;;14.50;7.47;;;;;;;-145.69;87.19;52206.75;5056127;28;20231;-77
2023/05/26 09:00:12;;;;;;;17.75;7.63;;;;;;;-145.69;82.48;52212.69;5056297;28;20694;-84
2023/05/26 09:02:39;;;;;;;14.00;7.75;;;;;;;-145.69;85.34;52182.97;5056995;28;20194;-83
2023/05/26 09:05:07;;;;;;;17.98;7.93;;;;;;;-145.69;83.88;52214.66;5047717;28;20208;-85
2023/05/26 09:07:33;;;;;;;13.75;7.15;;;;;;;-145.69;83.07;52202.78;5057510;28;20199;-87
2023/05/26 09:10:20;;;;;;;13.80;7.15;;;;;;;-145.69;80.92;52220.59;5058280;28;20306;-87
2023/05/26 09:12:47;;;;;;;17.17;8.85;;;;;;;-145.69;78.95;52198.81;5058428;28;20204;-86
2023/05/26 09:15:19;;;;;;;15.32;7.28;;;;;;;-145.69;78.65;52208.72;5056780;28;20199;-86
2023/05/26 09:17:46;;;;;;;17.55;7.88;;;;;;;-145.69;76.99;52186.94;5056843;28;20230;-81
2023/05/26 09:20:14;;;;;;;25.00;8.15;;;;;;;-145.69;80.22;52210.72;5056793;28;20222;-85
2023/05/26 09:22:43;;;;;;;16.38;7.30;;;;;;;-145.69;79.86;52190.91;5057456;28;20213;-83
2023/05/26 09:25:11;;;;;;;16.25;8.30;;;;;;;-145.69;80.14;52190.91;5056917;28;20199;-82
2023/05/26 09:27:38;;;;;;;13.60;5.97;;;;;;;-145.69;67.00;52188.91;5068657;28;20206;-80
2023/05/26 09:30:06;;;;;;;13.05;5.97;;;;;;;-145.69;67.28;52190.91;5075961;28;20198;-88
2023/05/26 09:32:33;;;;;;;14.65;5.72;;;;;;;-145.69;64.44;52167.13;5075010;28;20195;-83
2023/05/26 09:35:01;;;;;;;14.18;6.10;;;;;;;-145.69;69.71;52204.75;5063810;28;20211;-87
2023/05/26 09:37:31;;;;;;;16.73;6.55;;;;;;;-145.69;68.12;52210.72;5057260;28;20231;-87
2023/05/26 09:40:08;;;;;;;17.15;7.20;;;;;;;-145.69;72.90;52179.03;5072252;28;20222;-85
2023/05/26 09:42:38;;;;;;;11.75;5.93;;;;;;;-145.69;68.58;52194.88;5077741;28;20569;-88
2023/05/26 09:45:05;;;;;;;10.43;5.82;;;;;;;-145.69;68.02;52186.94;5058956;28;20200;-86
2023/05/26 09:47:36;;;;;;;13.93;6.95;;;;;;;-145.69;69.44;52184.97;5057644;28;20227;-88
2023/05/26 09:50:04;;;;;;;22.25;6.75;;;;;;;-145.69;68.34;52190.91;5057123;28;20230;-84
2023/05/26 09:52:32;;;;;;;15.38;6.10;;;;;;;-145.69;72.73;52177.03;5058731;28;20192;-87
2023/05/26 09:54:58;;;;;;;12.48;6.28;;;;;;;-145.69;71.31;52196.84;5058397;28;20222;-84
2023/05/26 09:57:28;;;;;;;13.93;6.45;;;;;;;-145.69;68.54;52151.28;5055722;28;20686;-88
2023/05/26 10:00:02;;;;;;;13.45;6.13;;;;;;;-145.69;68.82;52159.22;5055755;28;20192;-89
2023/05/26 10:02:29;;;;;;;15.15;6.00;;;;;;;-145.69;70.20;52163.19;5056530;28;20256;-83
2023/05/26 10:04:58;;;;;;;11.25;5.70;;;;;;;-145.69;70.06;52179.03;5076125;28;20206;-88
2023/05/26 10:07:27;;;;;;;12.88;6.68;;;;;;;-145.69;64.70;52157.25;5076073;28;20471;-87
2023/05/26 10:09:56;;;;;;;12.75;6.05;;;;;;;-145.69;66.14;52175.06;5076240;28;20213;-86
2023/05/26 10:12:26;;;;;;;12.48;5.90;;;;;;;-145.69;62.92;52165.16;5060380;28;20196;-90
2023/05/26 10:14:53;;;;;;;12.30;5.70;;;;;;;-145.69;63.37;52169.13;5073705;28;20211;-89
2023/05/26 10:17:22;;;;;;;10.90;5.15;;;;;;;-145.69;63.94;52157.25;5056823;28;20713;-86
2023/05/26 10:19:49;;;;;;;12.25;5.70;;;;;;;-145.69;66.06;52137.44;5055267;28;20292;-85
2023/05/26 10:22:21;;;;;;;14.70;5.97;;;;;;;-145.69;61.27;52192.88;5054488;28;20286;-87
2023/05/26 10:24:55;;;;;;;14.75;6.28;;;;;;;-145.69;60.79;52149.31;5056385;28;20211;-84
2023/05/26 10:27:29;;;;;;;14.38;5.50;;;;;;;-145.69;57.75;52155.25;5055685;28;20271;-85
2023/05/26 10:30:01;;;;;;;13.70;5.35;;;;;;;-145.69;60.48;52175.06;5055863;28;20233;-83
2023/05/26 10:32:45;;;;;;;14.25;5.63;;;;;;;-145.69;60.61;52163.19;5056982;28;20207;-85
2023/05/26 10:35:34;;;;;;;12.10;5.63;;;;;;;-145.69;57.69;52171.09;5075746;28;20202;-87
2023/05/26 10:38:13;;;;;;;14.15;6.60;;;;;;;-145.69;57.64;52157.25;5075351;28;20219;-87
2023/05/26 10:40:50;;;;;;;19.58;6.60;;;;;;;-145.69;63.65;52171.09;5075758;28;20259;-87
2023/05/26 10:43:20;;;;;;;11.38;6.50;;;;;;;-145.69;64.00;52151.28;5055959;28;20201;-86
2023/05/26 10:45:53;;;;;;;15.27;6.00;;;;;;;-145.69;58.84;52171.09;5054849;28;20206;-83
2023/05/26 10:48:22;;;;;;;17.13;6.18;;;;;;;-145.69;59.11;52175.06;5055450;28;20744;-89
2023/05/26 10:51:09;;;;;;;10.40;5.15;;;;;;;-145.69;61.48;52169.13;5054651;28;20192;-86
2023/05/26 10:53:40;;;;;;;14.65;6.00;;;;;;;-145.69;61.71;52137.44;5054724;28;20200;-83
2023/05/26 10:56:08;;;;;;;11.57;5.13;;;;;;;-145.69;56.91;52135.47;5055546;28;20199;-88
2023/05/26 10:58:41;;;;;;;14.52;5.90;;;;;;;-145.69;60.18;52141.41;5054651;28;20745;-83
2023/05/26 11:01:12;;;;;;;12.35;5.75;;;;;;;-145.69;54.18;52151.28;5055967;28;20253;-90
2023/05/26 11:03:42;;;;;;;13.02;4.95;;;;;;;-145.69;60.25;52147.34;5063437;28;20242;-89
2023/05/26 11:06:11;;;;;;;12.88;5.25;;;;;;;-145.69;57.36;52127.53;5074128;28;20218;-83
2023/05/26 11:08:40;;;;;;;9.38;5.18;;;;;;;-145.69;55.64;52131.50;5074730;28;20248;-87
2023/05/26 11:11:13;;;;;;;9.63;5.20;;;;;;;-145.69;53.27;52159.22;5074794;28;20541;-86